Toolesboro, Iowa
Current Conditions -  °F | °C
As of 9:55 PM on Friday 24 Oct 2014 (Local Time) from KMUT Reporting Station
Moderate Fog Moderate Fog  
Wind Chill: 55°   Ceiling: 1700
Heat Index: 55°   Visibility: 0.5mi
Dew Point: 55°   Wind: 0mph
Humidity: 100%   Direction: NA
Pressure: 29.96"   Gusts: NA
Location:  41.1602°N, 91.246°W
Report Text: KMUT 250255Z AUTO 00000KT 1/2SM FG BKN017 13/13 A2996 RMK AO2 VIS 1/4V1 1/2
Loading
Personal Weather Stations






























Interactive Weather Map
Tropical Storm Tracking
New forecast layout! Learn more

10-Day Weather Forecast

Advertisements
Track Severe Weather on mobile